createdAt,value
2023-05-21T00:00:17.662Z,32.75
2023-05-21T00:05:21.709Z,27.00
2023-05-21T00:10:26.613Z,31.50
2023-05-21T00:15:29.605Z,30.50
2023-05-21T00:20:33.165Z,24.75
2023-05-21T00:25:37.402Z,26.75
2023-05-21T00:30:41.058Z,29.20
2023-05-21T00:35:43.960Z,29.80
2023-05-21T00:40:48.173Z,30.60
2023-05-21T00:45:53.742Z,28.75
2023-05-21T00:50:56.604Z,25.40
2023-05-21T00:56:00.813Z,24.40
2023-05-21T01:01:06.730Z,26.80
2023-05-21T01:06:10.305Z,25.40
2023-05-21T01:11:15.056Z,28.60
2023-05-21T01:16:18.151Z,25.60
2023-05-21T01:21:21.648Z,29.40
2023-05-21T01:26:26.243Z,27.40
2023-05-21T01:31:30.355Z,30.00
2023-05-21T01:36:35.982Z,28.40
2023-05-21T01:41:41.856Z,29.00
2023-05-21T01:46:44.736Z,23.80
2023-05-21T01:51:47.601Z,27.60
2023-05-21T01:56:51.724Z,25.60
2023-05-21T02:01:54.676Z,24.80
2023-05-21T02:06:57.569Z,24.20
2023-05-21T02:12:02.216Z,27.60
2023-05-21T02:17:05.176Z,22.80
2023-05-21T02:22:08.180Z,28.00
2023-05-21T02:27:13.621Z,22.80
2023-05-21T02:32:17.026Z,23.20
2023-05-21T02:37:20.149Z,23.40
2023-05-21T02:42:24.447Z,21.00
2023-05-21T02:47:27.587Z,22.60
2023-05-21T02:52:30.473Z,23.80
2023-05-21T02:57:34.700Z,22.60
2023-05-21T03:02:37.651Z,20.80
2023-05-21T03:07:41.837Z,23.20
2023-05-21T03:12:46.033Z,23.80
2023-05-21T03:17:48.943Z,20.00
2023-05-21T03:22:52.767Z,22.80
2023-05-21T03:27:57.105Z,21.80
2023-05-21T03:33:21.786Z,21.60
2023-05-21T03:38:24.832Z,24.00
2023-05-21T03:43:29.736Z,20.80
2023-05-21T03:48:32.655Z,21.80
2023-05-21T03:53:37.032Z,21.40
2023-05-21T03:58:41.541Z,21.40
2023-05-21T04:03:44.861Z,20.60
2023-05-21T04:08:48.084Z,22.60
2023-05-21T04:13:52.819Z,22.80
2023-05-21T04:18:56.421Z,21.80
2023-05-21T04:24:02.154Z,22.40
2023-05-21T04:29:42.486Z,19.00
2023-05-21T04:34:45.627Z,19.80
2023-05-21T04:39:48.469Z,19.00
2023-05-21T04:44:55.541Z,22.60
2023-05-21T04:49:59.338Z,21.00
2023-05-21T04:55:03.810Z,21.40
2023-05-21T05:00:10.348Z,20.00
2023-05-21T05:05:17.531Z,23.40
2023-05-21T05:10:20.409Z,23.80
2023-05-21T05:15:25.142Z,20.60
2023-05-21T05:20:28.236Z,19.20
2023-05-21T05:25:31.391Z,21.40
2023-05-21T05:30:36.356Z,18.40
2023-05-21T05:35:50.969Z,20.80
2023-05-21T05:40:54.025Z,22.60
2023-05-21T05:46:00.118Z,20.80
2023-05-21T05:51:03.128Z,18.80
2023-05-21T05:56:08.321Z,23.60
2023-05-21T06:01:14.376Z,21.20
2023-05-21T06:06:18.012Z,23.00
2023-05-21T06:11:21.584Z,20.80
2023-05-21T06:16:25.847Z,21.40
2023-05-21T06:21:29.243Z,21.40
2023-05-21T06:26:32.376Z,18.80
2023-05-21T06:31:37.516Z,18.60
2023-05-21T06:36:40.526Z,22.60
2023-05-21T06:41:43.466Z,22.20
2023-05-21T06:47:06.723Z,18.20
2023-05-21T06:52:09.633Z,19.40
2023-05-21T06:57:12.680Z,22.60
2023-05-21T07:02:17.313Z,19.00
2023-05-21T07:07:20.277Z,21.40
2023-05-21T07:12:23.639Z,41.25
2023-05-21T07:17:28.242Z,46.00
2023-05-21T07:22:31.428Z,47.00
2023-05-21T07:27:34.343Z,53.33
2023-05-21T07:32:38.814Z,50.33
2023-05-21T07:37:41.893Z,46.25
2023-05-21T07:42:45.575Z,52.25
2023-05-21T07:47:51.903Z,47.50
2023-05-21T07:52:55.394Z,44.75
2023-05-21T07:57:58.549Z,49.75
2023-05-21T08:03:07.250Z,46.00
2023-05-21T08:08:10.368Z,47.50
2023-05-21T08:13:13.436Z,44.50
2023-05-21T08:18:18.446Z,45.25
2023-05-21T08:23:22.751Z,47.00
2023-05-21T08:28:29.849Z,49.25
2023-05-21T08:33:37.064Z,49.00
2023-05-21T08:38:40.875Z,48.75
2023-05-21T08:43:57.573Z,46.00
2023-05-21T08:49:04.684Z,41.50
2023-05-21T08:54:09.092Z,43.00
2023-05-21T08:59:11.966Z,44.25
2023-05-21T09:04:21.289Z,43.25
2023-05-21T09:09:31.593Z,44.75
2023-05-21T09:14:34.490Z,47.25
2023-05-21T09:20:12.523Z,43.00
2023-05-21T09:25:22.328Z,45.75
2023-05-21T09:30:27.817Z,42.50
2023-05-21T09:35:36.161Z,41.75
2023-05-21T09:40:40.499Z,42.50
2023-05-21T09:45:51.783Z,41.00
2023-05-21T09:50:56.135Z,41.50
2023-05-21T09:55:59.016Z,41.50
2023-05-21T10:01:01.843Z,44.50
2023-05-21T10:06:06.493Z,43.00
2023-05-21T10:11:09.496Z,44.25
2023-05-21T10:16:12.758Z,39.75
2023-05-21T10:21:17.088Z,44.00
2023-05-21T10:26:21.494Z,42.25
2023-05-21T10:31:24.540Z,34.50
2023-05-21T10:36:29.590Z,36.75
2023-05-21T10:41:35.008Z,37.50
2023-05-21T10:47:08.608Z,36.75
2023-05-21T10:52:19.951Z,40.50
2023-05-21T10:57:44.448Z,40.50
2023-05-21T11:02:47.462Z,38.50
2023-05-21T11:07:56.368Z,41.25
2023-05-21T11:13:14.874Z,41.75
2023-05-21T11:18:18.222Z,38.75
2023-05-21T11:23:23.209Z,38.25
2023-05-21T11:28:35.410Z,39.00
2023-05-21T11:33:38.288Z,38.50
2023-05-21T11:38:42.483Z,35.25
2023-05-21T11:43:45.364Z,36.00
2023-05-21T11:48:48.166Z,39.25
2023-05-21T11:53:52.367Z,38.25
2023-05-21T11:58:55.872Z,32.50
2023-05-21T12:03:58.823Z,36.00
2023-05-21T12:09:04.609Z,33.00
2023-05-21T12:14:09.216Z,34.50
2023-05-21T12:19:12.134Z,33.00
2023-05-21T12:24:16.496Z,36.00
2023-05-21T12:29:20.347Z,32.80
2023-05-21T12:34:39.508Z,34.00
2023-05-21T12:39:44.693Z,29.75
2023-05-21T12:44:51.585Z,33.00
2023-05-21T12:49:56.406Z,56.00
2023-05-21T12:55:00.896Z,56.50
2023-05-21T13:00:06.523Z,72.25
2023-05-21T13:05:10.251Z,67.67
2023-05-21T13:10:14.607Z,63.33
2023-05-21T13:15:17.547Z,57.33
2023-05-21T13:20:21.856Z,55.67
2023-05-21T13:25:28.831Z,52.00
2023-05-21T13:30:33.319Z,50.33
2023-05-21T13:35:36.378Z,54.33
2023-05-21T13:40:41.434Z,54.00
2023-05-21T13:45:52.571Z,49.33
2023-05-21T13:50:55.436Z,53.33
2023-05-21T13:55:59.719Z,51.00
2023-05-21T14:01:02.920Z,46.50
2023-05-21T14:06:08.299Z,47.67
2023-05-21T14:11:12.439Z,45.00
2023-05-21T14:16:15.399Z,43.75
2023-05-21T14:21:18.466Z,44.00
2023-05-21T14:26:22.607Z,43.50
2023-05-21T14:31:25.797Z,39.00
2023-05-21T14:36:28.906Z,41.75
2023-05-21T14:41:33.170Z,40.00
2023-05-21T14:46:36.837Z,39.75
2023-05-21T14:51:40.666Z,35.50
2023-05-21T14:56:45.008Z,42.50
2023-05-21T15:01:49.455Z,41.25
2023-05-21T15:06:52.455Z,33.75
2023-05-21T15:11:56.647Z,36.00
2023-05-21T15:16:59.492Z,39.50
2023-05-21T15:22:02.728Z,37.00
2023-05-21T15:27:07.667Z,36.25
2023-05-21T15:32:10.743Z,29.75
2023-05-21T15:37:15.344Z,33.00
2023-05-21T15:42:26.267Z,40.50
2023-05-21T15:47:29.286Z,32.75
2023-05-21T15:52:32.773Z,34.00
2023-05-21T15:57:37.070Z,30.75
2023-05-21T16:02:40.923Z,34.75
2023-05-21T16:07:44.468Z,30.25
2023-05-21T16:12:48.871Z,29.00
2023-05-21T16:17:51.865Z,31.00
2023-05-21T16:22:54.779Z,30.25
2023-05-21T16:27:59.000Z,30.25
2023-05-21T16:33:01.901Z,32.50
2023-05-21T16:38:04.764Z,27.75
2023-05-21T16:43:08.967Z,30.50
2023-05-21T16:48:12.798Z,26.75
2023-05-21T16:53:16.257Z,25.00
2023-05-21T16:58:20.432Z,28.75
2023-05-21T17:03:23.498Z,27.75
2023-05-21T17:08:26.304Z,26.80
2023-05-21T17:13:30.782Z,29.20
2023-05-21T17:18:33.739Z,26.40
2023-05-21T17:23:36.577Z,26.80
2023-05-21T17:28:40.768Z,26.50
2023-05-21T17:33:43.657Z,28.00
2023-05-21T17:38:46.903Z,25.40
2023-05-21T17:43:51.333Z,27.60
2023-05-21T17:48:54.111Z,25.60
2023-05-21T17:53:57.494Z,24.60
2023-05-21T17:59:01.847Z,21.40
2023-05-21T18:04:05.138Z,24.20
2023-05-21T18:09:10.431Z,22.80
2023-05-21T18:14:14.780Z,24.20
2023-05-21T18:19:17.716Z,24.20
2023-05-21T18:24:20.688Z,26.50
2023-05-21T18:29:24.972Z,28.20
2023-05-21T18:34:27.787Z,23.00
2023-05-21T18:39:30.710Z,29.25
2023-05-21T18:44:35.017Z,25.25
2023-05-21T18:49:37.980Z,28.20
2023-05-21T18:54:40.923Z,26.40
2023-05-21T18:59:45.314Z,31.80
2023-05-21T19:04:48.744Z,25.00
2023-05-21T19:09:52.732Z,28.40
2023-05-21T19:14:56.984Z,25.50
2023-05-21T19:20:00.087Z,27.60
2023-05-21T19:25:03.013Z,27.40
2023-05-21T19:30:09.635Z,29.25
2023-05-21T19:35:12.440Z,25.50
2023-05-21T19:40:17.546Z,28.00
2023-05-21T19:45:22.276Z,25.75
2023-05-21T19:50:25.219Z,25.00
2023-05-21T19:55:28.437Z,27.60
2023-05-21T20:00:33.278Z,26.40
2023-05-21T20:05:36.163Z,28.75
2023-05-21T20:10:40.360Z,25.40
2023-05-21T20:15:44.807Z,21.00
2023-05-21T20:20:47.669Z,27.00
2023-05-21T20:25:50.992Z,26.00
2023-05-21T20:30:57.624Z,22.60
2023-05-21T20:36:00.670Z,22.80
2023-05-21T20:41:03.704Z,26.50
2023-05-21T20:46:08.051Z,23.20
2023-05-21T20:51:11.197Z,22.60
2023-05-21T20:56:16.998Z,24.60
2023-05-21T21:01:24.207Z,23.20
2023-05-21T21:06:30.023Z,27.75
2023-05-21T21:11:33.066Z,28.00
2023-05-21T21:16:37.268Z,25.75
2023-05-21T21:21:40.406Z,23.75
2023-05-21T21:26:43.623Z,21.75
2023-05-21T21:31:47.987Z,24.00
2023-05-21T21:36:51.176Z,26.40
2023-05-21T21:41:54.045Z,22.60
2023-05-21T21:46:58.255Z,24.80
2023-05-21T21:52:01.398Z,23.00
2023-05-21T21:57:04.656Z,24.80
2023-05-21T22:02:08.855Z,25.80
2023-05-21T22:07:17.781Z,25.20
2023-05-21T22:12:20.929Z,25.60
2023-05-21T22:17:25.384Z,25.00
2023-05-21T22:22:28.229Z,24.80
2023-05-21T22:27:31.032Z,22.60
2023-05-21T22:32:35.216Z,21.00
2023-05-21T22:37:38.250Z,24.40
2023-05-21T22:42:41.209Z,22.20
2023-05-21T22:47:45.393Z,23.00
2023-05-21T22:52:48.177Z,23.00
2023-05-21T22:57:50.928Z,26.00
2023-05-21T23:02:55.213Z,25.20
2023-05-21T23:07:58.067Z,22.60
2023-05-21T23:13:00.910Z,21.60
2023-05-21T23:18:05.098Z,21.20
2023-05-21T23:23:08.014Z,21.80
2023-05-21T23:28:10.817Z,22.00
2023-05-21T23:33:15.037Z,18.80
2023-05-21T23:38:17.901Z,23.00
2023-05-21T23:43:20.751Z,21.20
2023-05-21T23:48:25.523Z,21.00
2023-05-21T23:53:28.314Z,20.00
2023-05-21T23:58:31.114Z,22.00
